sensor_id;sensor_type;location;lat;lon;timestamp;P1;durP1;ratioP1;P2;durP2;ratioP2
24901;SDS011;31328;51.402;0.016;2023-03-07T00:00:40;2.57;;;1.97;;
24901;SDS011;31328;51.402;0.016;2023-03-07T00:03:08;2.93;;;1.93;;
24901;SDS011;31328;51.402;0.016;2023-03-07T00:05:39;2.90;;;1.60;;
24901;SDS011;31328;51.402;0.016;2023-03-07T00:08:06;3.47;;;2.27;;
24901;SDS011;31328;51.402;0.016;2023-03-07T00:10:32;3.67;;;2.00;;
24901;SDS011;31328;51.402;0.016;2023-03-07T00:12:58;3.23;;;1.97;;
24901;SDS011;31328;51.402;0.016;2023-03-07T00:15:25;4.17;;;2.33;;
24901;SDS011;31328;51.402;0.016;2023-03-07T00:17:51;5.17;;;2.10;;
24901;SDS011;31328;51.402;0.016;2023-03-07T00:20:17;2.30;;;2.07;;
24901;SDS011;31328;51.402;0.016;2023-03-07T00:22:44;2.37;;;2.17;;
24901;SDS011;31328;51.402;0.016;2023-03-07T00:25:13;5.87;;;2.30;;
24901;SDS011;31328;51.402;0.016;2023-03-07T00:27:40;2.30;;;1.80;;
24901;SDS011;31328;51.402;0.016;2023-03-07T00:30:07;2.23;;;1.73;;
24901;SDS011;31328;51.402;0.016;2023-03-07T00:32:37;3.43;;;1.57;;
24901;SDS011;31328;51.402;0.016;2023-03-07T00:35:03;3.43;;;1.80;;
24901;SDS011;31328;51.402;0.016;2023-03-07T00:37:29;4.00;;;2.37;;
24901;SDS011;31328;51.402;0.016;2023-03-07T00:39:56;2.33;;;1.83;;
24901;SDS011;31328;51.402;0.016;2023-03-07T00:42:22;2.27;;;1.77;;
24901;SDS011;31328;51.402;0.016;2023-03-07T00:44:49;2.80;;;1.90;;
24901;SDS011;31328;51.402;0.016;2023-03-07T00:47:15;4.23;;;2.17;;
24901;SDS011;31328;51.402;0.016;2023-03-07T00:49:41;2.20;;;1.33;;
24901;SDS011;31328;51.402;0.016;2023-03-07T00:52:08;2.27;;;1.43;;
24901;SDS011;31328;51.402;0.016;2023-03-07T00:54:34;3.13;;;2.10;;
24901;SDS011;31328;51.402;0.016;2023-03-07T00:57:01;3.00;;;2.07;;
24901;SDS011;31328;51.402;0.016;2023-03-07T00:59:27;2.30;;;1.50;;
24901;SDS011;31328;51.402;0.016;2023-03-07T01:01:54;2.70;;;1.53;;
24901;SDS011;31328;51.402;0.016;2023-03-07T01:04:20;4.13;;;1.60;;
24901;SDS011;31328;51.402;0.016;2023-03-07T01:06:47;2.83;;;1.83;;
24901;SDS011;31328;51.402;0.016;2023-03-07T01:09:13;2.13;;;1.40;;
24901;SDS011;31328;51.402;0.016;2023-03-07T01:11:39;2.00;;;1.47;;
24901;SDS011;31328;51.402;0.016;2023-03-07T01:14:06;2.00;;;1.57;;
24901;SDS011;31328;51.402;0.016;2023-03-07T01:16:35;3.17;;;1.30;;
24901;SDS011;31328;51.402;0.016;2023-03-07T01:19:04;2.67;;;1.37;;
24901;SDS011;31328;51.402;0.016;2023-03-07T01:21:36;3.67;;;1.43;;
24901;SDS011;31328;51.402;0.016;2023-03-07T01:24:04;2.03;;;1.37;;
24901;SDS011;31328;51.402;0.016;2023-03-07T01:26:32;2.97;;;1.70;;
24901;SDS011;31328;51.402;0.016;2023-03-07T01:29:01;2.10;;;1.30;;
24901;SDS011;31328;51.402;0.016;2023-03-07T01:31:31;1.53;;;1.20;;
24901;SDS011;31328;51.402;0.016;2023-03-07T01:33:59;1.20;;;0.97;;
24901;SDS011;31328;51.402;0.016;2023-03-07T01:36:28;3.60;;;2.03;;
24901;SDS011;31328;51.402;0.016;2023-03-07T01:41:33;3.00;;;1.00;;
24901;SDS011;31328;51.402;0.016;2023-03-07T01:44:02;1.87;;;1.07;;
24901;SDS011;31328;51.402;0.016;2023-03-07T01:46:36;1.43;;;1.20;;
24901;SDS011;31328;51.402;0.016;2023-03-07T01:49:10;1.87;;;1.40;;
24901;SDS011;31328;51.402;0.016;2023-03-07T01:52:10;3.20;;;1.00;;
24901;SDS011;31328;51.402;0.016;2023-03-07T01:54:51;4.93;;;2.00;;
24901;SDS011;31328;51.402;0.016;2023-03-07T01:57:23;2.10;;;1.27;;
24901;SDS011;31328;51.402;0.016;2023-03-07T01:59:54;3.37;;;1.47;;
24901;SDS011;31328;51.402;0.016;2023-03-07T02:02:23;2.27;;;1.33;;
24901;SDS011;31328;51.402;0.016;2023-03-07T02:04:56;12.87;;;2.43;;
24901;SDS011;31328;51.402;0.016;2023-03-07T02:07:24;4.00;;;1.80;;
24901;SDS011;31328;51.402;0.016;2023-03-07T02:09:59;4.17;;;1.93;;
24901;SDS011;31328;51.402;0.016;2023-03-07T02:12:26;1.80;;;1.10;;
24901;SDS011;31328;51.402;0.016;2023-03-07T02:14:53;2.03;;;0.80;;
24901;SDS011;31328;51.402;0.016;2023-03-07T02:17:20;2.43;;;0.93;;
24901;SDS011;31328;51.402;0.016;2023-03-07T02:22:32;3.17;;;1.45;;
24901;SDS011;31328;51.402;0.016;2023-03-07T02:25:02;1.63;;;1.00;;
24901;SDS011;31328;51.402;0.016;2023-03-07T02:27:35;2.70;;;1.30;;
24901;SDS011;31328;51.402;0.016;2023-03-07T02:30:04;2.90;;;1.37;;
24901;SDS011;31328;51.402;0.016;2023-03-07T02:32:31;4.10;;;1.77;;
24901;SDS011;31328;51.402;0.016;2023-03-07T02:34:57;2.97;;;1.50;;
24901;SDS011;31328;51.402;0.016;2023-03-07T02:37:25;2.07;;;1.33;;
24901;SDS011;31328;51.402;0.016;2023-03-07T02:39:57;4.40;;;2.27;;
24901;SDS011;31328;51.402;0.016;2023-03-07T02:42:30;3.63;;;1.93;;
24901;SDS011;31328;51.402;0.016;2023-03-07T02:45:06;3.80;;;1.67;;
24901;SDS011;31328;51.402;0.016;2023-03-07T02:47:36;3.13;;;1.43;;
24901;SDS011;31328;51.402;0.016;2023-03-07T02:50:03;3.43;;;1.57;;
24901;SDS011;31328;51.402;0.016;2023-03-07T02:52:30;6.87;;;2.67;;
24901;SDS011;31328;51.402;0.016;2023-03-07T02:54:56;4.00;;;2.03;;
24901;SDS011;31328;51.402;0.016;2023-03-07T02:57:26;3.67;;;1.77;;
24901;SDS011;31328;51.402;0.016;2023-03-07T02:59:52;6.13;;;2.53;;
24901;SDS011;31328;51.402;0.016;2023-03-07T03:02:19;5.17;;;2.40;;
24901;SDS011;31328;51.402;0.016;2023-03-07T03:04:46;5.53;;;2.90;;
24901;SDS011;31328;51.402;0.016;2023-03-07T03:07:12;6.83;;;2.20;;
24901;SDS011;31328;51.402;0.016;2023-03-07T03:09:39;5.77;;;2.17;;
24901;SDS011;31328;51.402;0.016;2023-03-07T03:12:05;6.57;;;2.43;;
24901;SDS011;31328;51.402;0.016;2023-03-07T03:14:33;4.83;;;1.90;;
24901;SDS011;31328;51.402;0.016;2023-03-07T03:16:59;7.73;;;2.50;;
24901;SDS011;31328;51.402;0.016;2023-03-07T03:19:27;4.10;;;1.97;;
24901;SDS011;31328;51.402;0.016;2023-03-07T03:21:53;4.40;;;2.20;;
24901;SDS011;31328;51.402;0.016;2023-03-07T03:24:20;4.47;;;1.90;;
24901;SDS011;31328;51.402;0.016;2023-03-07T03:26:47;4.40;;;2.00;;
24901;SDS011;31328;51.402;0.016;2023-03-07T03:29:15;5.37;;;2.07;;
24901;SDS011;31328;51.402;0.016;2023-03-07T03:31:41;2.87;;;1.67;;
24901;SDS011;31328;51.402;0.016;2023-03-07T03:34:09;3.70;;;2.00;;
24901;SDS011;31328;51.402;0.016;2023-03-07T03:36:35;5.37;;;2.17;;
24901;SDS011;31328;51.402;0.016;2023-03-07T03:39:05;6.10;;;2.53;;
24901;SDS011;31328;51.402;0.016;2023-03-07T03:41:36;3.60;;;2.43;;
24901;SDS011;31328;51.402;0.016;2023-03-07T03:44:03;4.13;;;2.33;;
24901;SDS011;31328;51.402;0.016;2023-03-07T03:46:31;5.50;;;3.00;;
24901;SDS011;31328;51.402;0.016;2023-03-07T03:48:58;5.63;;;2.90;;
24901;SDS011;31328;51.402;0.016;2023-03-07T03:51:26;5.93;;;3.30;;
24901;SDS011;31328;51.402;0.016;2023-03-07T03:53:54;6.60;;;3.87;;
24901;SDS011;31328;51.402;0.016;2023-03-07T03:56:25;6.13;;;3.40;;
24901;SDS011;31328;51.402;0.016;2023-03-07T03:58:53;7.33;;;3.93;;
24901;SDS011;31328;51.402;0.016;2023-03-07T04:01:22;7.70;;;3.60;;
24901;SDS011;31328;51.402;0.016;2023-03-07T04:03:50;4.73;;;3.67;;
24901;SDS011;31328;51.402;0.016;2023-03-07T04:06:22;4.67;;;3.90;;
24901;SDS011;31328;51.402;0.016;2023-03-07T04:08:50;6.13;;;4.13;;
24901;SDS011;31328;51.402;0.016;2023-03-07T04:11:18;7.50;;;4.57;;
24901;SDS011;31328;51.402;0.016;2023-03-07T04:13:45;7.77;;;4.03;;
24901;SDS011;31328;51.402;0.016;2023-03-07T04:16:13;6.57;;;4.13;;
24901;SDS011;31328;51.402;0.016;2023-03-07T04:18:40;7.03;;;4.43;;
24901;SDS011;31328;51.402;0.016;2023-03-07T04:21:08;6.40;;;4.87;;
24901;SDS011;31328;51.402;0.016;2023-03-07T04:23:36;6.43;;;4.60;;
24901;SDS011;31328;51.402;0.016;2023-03-07T04:26:04;6.13;;;4.50;;
24901;SDS011;31328;51.402;0.016;2023-03-07T04:28:33;5.73;;;4.37;;
24901;SDS011;31328;51.402;0.016;2023-03-07T04:31:09;6.73;;;4.53;;
24901;SDS011;31328;51.402;0.016;2023-03-07T04:33:46;6.87;;;4.77;;
24901;SDS011;31328;51.402;0.016;2023-03-07T04:36:14;6.77;;;5.00;;
24901;SDS011;31328;51.402;0.016;2023-03-07T04:38:41;6.97;;;4.57;;
24901;SDS011;31328;51.402;0.016;2023-03-07T04:41:09;6.83;;;4.67;;
24901;SDS011;31328;51.402;0.016;2023-03-07T04:43:39;6.13;;;4.37;;
24901;SDS011;31328;51.402;0.016;2023-03-07T04:46:05;6.43;;;4.43;;
24901;SDS011;31328;51.402;0.016;2023-03-07T04:48:32;6.03;;;4.33;;
24901;SDS011;31328;51.402;0.016;2023-03-07T04:50:58;4.80;;;3.67;;
24901;SDS011;31328;51.402;0.016;2023-03-07T04:53:25;5.20;;;3.50;;
24901;SDS011;31328;51.402;0.016;2023-03-07T04:55:56;4.67;;;2.93;;
24901;SDS011;31328;51.402;0.016;2023-03-07T04:58:26;4.57;;;3.30;;
24901;SDS011;31328;51.402;0.016;2023-03-07T05:00:53;4.37;;;3.67;;
24901;SDS011;31328;51.402;0.016;2023-03-07T05:03:25;4.37;;;3.07;;
24901;SDS011;31328;51.402;0.016;2023-03-07T05:05:52;4.87;;;3.30;;
24901;SDS011;31328;51.402;0.016;2023-03-07T05:08:19;3.63;;;3.03;;
24901;SDS011;31328;51.402;0.016;2023-03-07T05:10:46;4.67;;;3.00;;
24901;SDS011;31328;51.402;0.016;2023-03-07T05:13:13;6.40;;;3.03;;
24901;SDS011;31328;51.402;0.016;2023-03-07T05:15:39;3.43;;;2.83;;
24901;SDS011;31328;51.402;0.016;2023-03-07T05:18:06;4.57;;;3.20;;
24901;SDS011;31328;51.402;0.016;2023-03-07T05:20:32;4.33;;;2.80;;
24901;SDS011;31328;51.402;0.016;2023-03-07T05:22:59;4.90;;;3.40;;
24901;SDS011;31328;51.402;0.016;2023-03-07T05:25:25;4.10;;;3.40;;
24901;SDS011;31328;51.402;0.016;2023-03-07T05:27:53;4.93;;;3.43;;
24901;SDS011;31328;51.402;0.016;2023-03-07T05:30:20;5.70;;;3.80;;
24901;SDS011;31328;51.402;0.016;2023-03-07T05:32:47;5.67;;;3.70;;
24901;SDS011;31328;51.402;0.016;2023-03-07T05:35:14;6.87;;;4.20;;
24901;SDS011;31328;51.402;0.016;2023-03-07T05:37:42;5.90;;;4.13;;
24901;SDS011;31328;51.402;0.016;2023-03-07T05:40:09;6.93;;;4.57;;
24901;SDS011;31328;51.402;0.016;2023-03-07T05:42:41;7.47;;;4.77;;
24901;SDS011;31328;51.402;0.016;2023-03-07T05:45:08;6.50;;;4.57;;
24901;SDS011;31328;51.402;0.016;2023-03-07T05:47:35;7.07;;;5.07;;
24901;SDS011;31328;51.402;0.016;2023-03-07T05:50:02;7.07;;;5.00;;
24901;SDS011;31328;51.402;0.016;2023-03-07T05:52:28;7.70;;;5.27;;
24901;SDS011;31328;51.402;0.016;2023-03-07T05:54:54;8.23;;;5.13;;
24901;SDS011;31328;51.402;0.016;2023-03-07T05:57:21;8.60;;;5.70;;
24901;SDS011;31328;51.402;0.016;2023-03-07T05:59:48;8.80;;;6.47;;
24901;SDS011;31328;51.402;0.016;2023-03-07T06:02:14;9.93;;;5.83;;
24901;SDS011;31328;51.402;0.016;2023-03-07T06:04:41;9.37;;;6.20;;
24901;SDS011;31328;51.402;0.016;2023-03-07T06:07:08;10.13;;;6.40;;
24901;SDS011;31328;51.402;0.016;2023-03-07T06:09:34;10.23;;;6.63;;
24901;SDS011;31328;51.402;0.016;2023-03-07T06:12:01;13.13;;;7.07;;
24901;SDS011;31328;51.402;0.016;2023-03-07T06:14:30;14.87;;;7.73;;
24901;SDS011;31328;51.402;0.016;2023-03-07T06:16:57;12.03;;;6.57;;
24901;SDS011;31328;51.402;0.016;2023-03-07T06:19:24;11.27;;;6.30;;
24901;SDS011;31328;51.402;0.016;2023-03-07T06:21:51;10.87;;;6.40;;
24901;SDS011;31328;51.402;0.016;2023-03-07T06:24:18;9.77;;;6.33;;
24901;SDS011;31328;51.402;0.016;2023-03-07T06:26:46;11.70;;;6.33;;
24901;SDS011;31328;51.402;0.016;2023-03-07T06:29:13;9.60;;;5.90;;
24901;SDS011;31328;51.402;0.016;2023-03-07T06:31:40;11.63;;;6.50;;
24901;SDS011;31328;51.402;0.016;2023-03-07T06:34:06;13.37;;;7.00;;
24901;SDS011;31328;51.402;0.016;2023-03-07T06:36:33;15.13;;;7.63;;
24901;SDS011;31328;51.402;0.016;2023-03-07T06:39:01;13.47;;;6.70;;
24901;SDS011;31328;51.402;0.016;2023-03-07T06:41:27;12.20;;;7.00;;
24901;SDS011;31328;51.402;0.016;2023-03-07T06:43:56;12.33;;;7.10;;
24901;SDS011;31328;51.402;0.016;2023-03-07T06:46:26;12.80;;;7.37;;
24901;SDS011;31328;51.402;0.016;2023-03-07T06:48:53;10.80;;;6.77;;
24901;SDS011;31328;51.402;0.016;2023-03-07T06:51:20;14.73;;;7.30;;
24901;SDS011;31328;51.402;0.016;2023-03-07T06:53:47;12.90;;;7.33;;
24901;SDS011;31328;51.402;0.016;2023-03-07T06:56:13;11.63;;;7.00;;
24901;SDS011;31328;51.402;0.016;2023-03-07T06:58:41;11.93;;;6.87;;
24901;SDS011;31328;51.402;0.016;2023-03-07T07:01:17;12.00;;;6.90;;
24901;SDS011;31328;51.402;0.016;2023-03-07T07:03:48;13.27;;;7.17;;
24901;SDS011;31328;51.402;0.016;2023-03-07T07:06:15;11.53;;;7.47;;
24901;SDS011;31328;51.402;0.016;2023-03-07T07:08:41;15.63;;;7.23;;
24901;SDS011;31328;51.402;0.016;2023-03-07T07:11:09;13.80;;;7.60;;
24901;SDS011;31328;51.402;0.016;2023-03-07T07:13:36;14.70;;;7.43;;
24901;SDS011;31328;51.402;0.016;2023-03-07T07:16:04;13.47;;;7.70;;
24901;SDS011;31328;51.402;0.016;2023-03-07T07:18:32;16.93;;;8.33;;
24901;SDS011;31328;51.402;0.016;2023-03-07T07:20:59;13.57;;;7.77;;
24901;SDS011;31328;51.402;0.016;2023-03-07T07:23:26;15.17;;;8.07;;
24901;SDS011;31328;51.402;0.016;2023-03-07T07:25:53;17.10;;;8.20;;
24901;SDS011;31328;51.402;0.016;2023-03-07T07:28:19;15.17;;;8.30;;
24901;SDS011;31328;51.402;0.016;2023-03-07T07:30:46;14.27;;;7.97;;
24901;SDS011;31328;51.402;0.016;2023-03-07T07:33:14;17.43;;;9.13;;
24901;SDS011;31328;51.402;0.016;2023-03-07T07:35:43;13.60;;;8.03;;
24901;SDS011;31328;51.402;0.016;2023-03-07T07:38:10;15.73;;;7.97;;
24901;SDS011;31328;51.402;0.016;2023-03-07T07:40:37;15.70;;;8.57;;
24901;SDS011;31328;51.402;0.016;2023-03-07T07:43:04;14.60;;;8.70;;
24901;SDS011;31328;51.402;0.016;2023-03-07T07:45:37;15.70;;;9.17;;
24901;SDS011;31328;51.402;0.016;2023-03-07T07:48:05;17.57;;;9.07;;
24901;SDS011;31328;51.402;0.016;2023-03-07T07:50:33;17.00;;;9.00;;
24901;SDS011;31328;51.402;0.016;2023-03-07T07:53:00;14.67;;;9.30;;
24901;SDS011;31328;51.402;0.016;2023-03-07T07:55:26;16.40;;;8.97;;
24901;SDS011;31328;51.402;0.016;2023-03-07T07:57:54;15.67;;;9.00;;
24901;SDS011;31328;51.402;0.016;2023-03-07T08:00:21;14.03;;;8.20;;
24901;SDS011;31328;51.402;0.016;2023-03-07T08:02:48;17.17;;;8.90;;
24901;SDS011;31328;51.402;0.016;2023-03-07T08:05:15;15.13;;;9.03;;
24901;SDS011;31328;51.402;0.016;2023-03-07T08:07:43;16.83;;;9.53;;
24901;SDS011;31328;51.402;0.016;2023-03-07T08:10:11;18.33;;;8.70;;
24901;SDS011;31328;51.402;0.016;2023-03-07T08:12:42;16.40;;;9.13;;
24901;SDS011;31328;51.402;0.016;2023-03-07T08:15:09;13.83;;;8.67;;
24901;SDS011;31328;51.402;0.016;2023-03-07T08:17:35;14.50;;;8.00;;
24901;SDS011;31328;51.402;0.016;2023-03-07T08:20:02;15.13;;;7.93;;
24901;SDS011;31328;51.402;0.016;2023-03-07T08:22:33;14.13;;;7.97;;
24901;SDS011;31328;51.402;0.016;2023-03-07T08:25:00;13.20;;;7.60;;
24901;SDS011;31328;51.402;0.016;2023-03-07T08:27:27;13.10;;;7.77;;
24901;SDS011;31328;51.402;0.016;2023-03-07T08:29:53;13.70;;;7.90;;
24901;SDS011;31328;51.402;0.016;2023-03-07T08:32:20;14.80;;;8.37;;
24901;SDS011;31328;51.402;0.016;2023-03-07T08:34:46;13.50;;;7.27;;
24901;SDS011;31328;51.402;0.016;2023-03-07T08:37:13;14.17;;;7.20;;
24901;SDS011;31328;51.402;0.016;2023-03-07T08:39:39;13.27;;;7.03;;
24901;SDS011;31328;51.402;0.016;2023-03-07T08:42:05;10.17;;;6.07;;
24901;SDS011;31328;51.402;0.016;2023-03-07T08:44:31;13.33;;;6.80;;
24901;SDS011;31328;51.402;0.016;2023-03-07T08:46:58;11.50;;;6.80;;
24901;SDS011;31328;51.402;0.016;2023-03-07T08:49:24;12.00;;;6.20;;
24901;SDS011;31328;51.402;0.016;2023-03-07T08:51:50;12.23;;;6.50;;
24901;SDS011;31328;51.402;0.016;2023-03-07T08:54:17;9.83;;;5.57;;
24901;SDS011;31328;51.402;0.016;2023-03-07T08:56:43;10.03;;;5.43;;
24901;SDS011;31328;51.402;0.016;2023-03-07T08:59:09;7.17;;;4.40;;
24901;SDS011;31328;51.402;0.016;2023-03-07T09:01:36;8.33;;;3.93;;
24901;SDS011;31328;51.402;0.016;2023-03-07T09:04:02;8.17;;;4.00;;
24901;SDS011;31328;51.402;0.016;2023-03-07T09:06:30;7.03;;;3.27;;
24901;SDS011;31328;51.402;0.016;2023-03-07T09:08:57;10.33;;;4.00;;
24901;SDS011;31328;51.402;0.016;2023-03-07T09:11:23;7.50;;;4.20;;
24901;SDS011;31328;51.402;0.016;2023-03-07T09:13:51;7.50;;;4.07;;
24901;SDS011;31328;51.402;0.016;2023-03-07T09:16:17;8.20;;;3.37;;
24901;SDS011;31328;51.402;0.016;2023-03-07T09:18:43;6.77;;;3.70;;
24901;SDS011;31328;51.402;0.016;2023-03-07T09:21:10;9.47;;;3.73;;
24901;SDS011;31328;51.402;0.016;2023-03-07T09:23:36;7.03;;;3.87;;
24901;SDS011;31328;51.402;0.016;2023-03-07T09:26:02;8.33;;;4.30;;
24901;SDS011;31328;51.402;0.016;2023-03-07T09:28:30;10.37;;;4.97;;
24901;SDS011;31328;51.402;0.016;2023-03-07T09:30:57;10.37;;;5.30;;
24901;SDS011;31328;51.402;0.016;2023-03-07T09:33:23;9.80;;;5.27;;
24901;SDS011;31328;51.402;0.016;2023-03-07T09:35:49;9.80;;;5.27;;
24901;SDS011;31328;51.402;0.016;2023-03-07T09:38:16;9.27;;;5.20;;
24901;SDS011;31328;51.402;0.016;2023-03-07T09:40:43;9.33;;;5.10;;
24901;SDS011;31328;51.402;0.016;2023-03-07T09:43:19;9.53;;;4.77;;
24901;SDS011;31328;51.402;0.016;2023-03-07T09:46:33;9.95;;;4.72;;
24901;SDS011;31328;51.402;0.016;2023-03-07T09:49:33;9.40;;;5.03;;
24901;SDS011;31328;51.402;0.016;2023-03-07T09:52:12;10.70;;;5.37;;
24901;SDS011;31328;51.402;0.016;2023-03-07T09:54:45;9.03;;;4.67;;
24901;SDS011;31328;51.402;0.016;2023-03-07T09:57:15;7.70;;;5.30;;
24901;SDS011;31328;51.402;0.016;2023-03-07T09:59:50;12.33;;;5.57;;
24901;SDS011;31328;51.402;0.016;2023-03-07T10:02:22;10.30;;;5.55;;
24901;SDS011;31328;51.402;0.016;2023-03-07T10:07:33;9.93;;;5.20;;
24901;SDS011;31328;51.402;0.016;2023-03-07T10:10:01;8.30;;;5.20;;
24901;SDS011;31328;51.402;0.016;2023-03-07T10:25:45;8.37;;;5.70;;
24901;SDS011;31328;51.402;0.016;2023-03-07T10:30:58;12.87;;;6.00;;
24901;SDS011;31328;51.402;0.016;2023-03-07T10:33:34;9.60;;;5.90;;
24901;SDS011;31328;51.402;0.016;2023-03-07T10:36:05;11.80;;;6.03;;
24901;SDS011;31328;51.402;0.016;2023-03-07T10:38:43;8.63;;;5.70;;
24901;SDS011;31328;51.402;0.016;2023-03-07T10:41:19;10.27;;;5.80;;
24901;SDS011;31328;51.402;0.016;2023-03-07T10:43:47;8.93;;;5.40;;
24901;SDS011;31328;51.402;0.016;2023-03-07T10:46:16;8.60;;;5.93;;
24901;SDS011;31328;51.402;0.016;2023-03-07T10:48:48;7.07;;;5.60;;
24901;SDS011;31328;51.402;0.016;2023-03-07T10:53:46;8.47;;;5.63;;
24901;SDS011;31328;51.402;0.016;2023-03-07T10:56:16;8.30;;;5.77;;
24901;SDS011;31328;51.402;0.016;2023-03-07T10:59:00;7.77;;;5.83;;
24901;SDS011;31328;51.402;0.016;2023-03-07T11:01:27;10.37;;;5.63;;
24901;SDS011;31328;51.402;0.016;2023-03-07T11:14:21;10.07;;;5.27;;
24901;SDS011;31328;51.402;0.016;2023-03-07T11:16:50;6.20;;;4.87;;
24901;SDS011;31328;51.402;0.016;2023-03-07T11:22:24;8.70;;;4.30;;
24901;SDS011;31328;51.402;0.016;2023-03-07T11:24:55;7.60;;;4.80;;
24901;SDS011;31328;51.402;0.016;2023-03-07T11:27:29;6.10;;;4.40;;
24901;SDS011;31328;51.402;0.016;2023-03-07T11:32:31;6.53;;;4.30;;
24901;SDS011;31328;51.402;0.016;2023-03-07T11:35:02;7.93;;;4.70;;
24901;SDS011;31328;51.402;0.016;2023-03-07T11:37:33;6.70;;;4.73;;
24901;SDS011;31328;51.402;0.016;2023-03-07T11:43:04;7.70;;;4.50;;
24901;SDS011;31328;51.402;0.016;2023-03-07T11:51:20;7.20;;;4.10;;
24901;SDS011;31328;51.402;0.016;2023-03-07T11:56:43;7.50;;;4.40;;
24901;SDS011;31328;51.402;0.016;2023-03-07T12:02:27;8.77;;;5.30;;
24901;SDS011;31328;51.402;0.016;2023-03-07T12:05:22;8.63;;;4.47;;
24901;SDS011;31328;51.402;0.016;2023-03-07T12:10:34;6.80;;;4.30;;
24901;SDS011;31328;51.402;0.016;2023-03-07T12:22:00;9.40;;;5.90;;
24901;SDS011;31328;51.402;0.016;2023-03-07T12:24:33;7.87;;;5.07;;
24901;SDS011;31328;51.402;0.016;2023-03-07T12:27:37;7.63;;;4.47;;
24901;SDS011;31328;51.402;0.016;2023-03-07T12:30:13;4.77;;;3.87;;
24901;SDS011;31328;51.402;0.016;2023-03-07T12:32:44;6.30;;;4.07;;
24901;SDS011;31328;51.402;0.016;2023-03-07T12:37:42;7.27;;;3.60;;
24901;SDS011;31328;51.402;0.016;2023-03-07T12:40:18;6.47;;;3.37;;
24901;SDS011;31328;51.402;0.016;2023-03-07T12:43:09;6.73;;;3.70;;
24901;SDS011;31328;51.402;0.016;2023-03-07T12:45:51;9.17;;;4.47;;
24901;SDS011;31328;51.402;0.016;2023-03-07T12:48:33;8.10;;;4.23;;
24901;SDS011;31328;51.402;0.016;2023-03-07T12:51:17;8.67;;;4.30;;
24901;SDS011;31328;51.402;0.016;2023-03-07T12:53:50;8.13;;;4.70;;
24901;SDS011;31328;51.402;0.016;2023-03-07T12:59:10;7.63;;;4.17;;
24901;SDS011;31328;51.402;0.016;2023-03-07T13:04:36;8.77;;;4.70;;
24901;SDS011;31328;51.402;0.016;2023-03-07T13:09:38;10.73;;;6.03;;
24901;SDS011;31328;51.402;0.016;2023-03-07T13:14:46;9.37;;;5.70;;
24901;SDS011;31328;51.402;0.016;2023-03-07T13:19:59;8.47;;;5.00;;
24901;SDS011;31328;51.402;0.016;2023-03-07T13:24:53;7.90;;;5.10;;
24901;SDS011;31328;51.402;0.016;2023-03-07T13:27:29;7.77;;;5.63;;
24901;SDS011;31328;51.402;0.016;2023-03-07T13:58:39;3.60;;;2.13;;
24901;SDS011;31328;51.402;0.016;2023-03-07T14:06:55;4.73;;;2.47;;
24901;SDS011;31328;51.402;0.016;2023-03-07T14:09:28;5.67;;;3.37;;
24901;SDS011;31328;51.402;0.016;2023-03-07T14:14:56;5.70;;;3.30;;
24901;SDS011;31328;51.402;0.016;2023-03-07T14:20:44;8.03;;;4.20;;
24901;SDS011;31328;51.402;0.016;2023-03-07T14:26:20;5.20;;;3.78;;
24901;SDS011;31328;51.402;0.016;2023-03-07T14:28:58;5.90;;;2.90;;
24901;SDS011;31328;51.402;0.016;2023-03-07T14:31:28;5.70;;;2.67;;
24901;SDS011;31328;51.402;0.016;2023-03-07T14:36:48;11.10;;;4.60;;
24901;SDS011;31328;51.402;0.016;2023-03-07T14:39:28;9.47;;;4.07;;
24901;SDS011;31328;51.402;0.016;2023-03-07T14:42:23;5.87;;;3.60;;
24901;SDS011;31328;51.402;0.016;2023-03-07T14:50:40;9.03;;;4.60;;
24901;SDS011;31328;51.402;0.016;2023-03-07T14:53:15;32.80;;;8.00;;
24901;SDS011;31328;51.402;0.016;2023-03-07T14:55:46;17.37;;;5.67;;
24901;SDS011;31328;51.402;0.016;2023-03-07T14:58:25;10.13;;;4.53;;
24901;SDS011;31328;51.402;0.016;2023-03-07T15:01:01;17.20;;;5.73;;
24901;SDS011;31328;51.402;0.016;2023-03-07T15:03:43;6.57;;;3.67;;
24901;SDS011;31328;51.402;0.016;2023-03-07T15:06:12;5.43;;;3.27;;
24901;SDS011;31328;51.402;0.016;2023-03-07T15:08:40;10.50;;;4.10;;
24901;SDS011;31328;51.402;0.016;2023-03-07T15:16:15;24.33;;;4.93;;
24901;SDS011;31328;51.402;0.016;2023-03-07T15:18:55;6.82;;;3.08;;
24901;SDS011;31328;51.402;0.016;2023-03-07T15:21:26;6.07;;;3.57;;
24901;SDS011;31328;51.402;0.016;2023-03-07T15:24:02;5.30;;;2.90;;
24901;SDS011;31328;51.402;0.016;2023-03-07T15:26:29;13.73;;;3.60;;
24901;SDS011;31328;51.402;0.016;2023-03-07T15:28:58;7.57;;;3.70;;
24901;SDS011;31328;51.402;0.016;2023-03-07T15:31:50;5.00;;;3.20;;
24901;SDS011;31328;51.402;0.016;2023-03-07T15:37:17;5.00;;;3.00;;
24901;SDS011;31328;51.402;0.016;2023-03-07T15:39:56;3.10;;;2.37;;
24901;SDS011;31328;51.402;0.016;2023-03-07T15:42:23;5.97;;;2.87;;
24901;SDS011;31328;51.402;0.016;2023-03-07T15:44:53;3.07;;;2.40;;
24901;SDS011;31328;51.402;0.016;2023-03-07T15:47:25;4.60;;;3.17;;
24901;SDS011;31328;51.402;0.016;2023-03-07T15:49:56;6.60;;;3.80;;
24901;SDS011;31328;51.402;0.016;2023-03-07T15:52:27;5.67;;;4.17;;
24901;SDS011;31328;51.402;0.016;2023-03-07T15:54:55;5.63;;;3.53;;
24901;SDS011;31328;51.402;0.016;2023-03-07T15:57:24;5.73;;;4.37;;
24901;SDS011;31328;51.402;0.016;2023-03-07T15:59:57;6.00;;;3.20;;
24901;SDS011;31328;51.402;0.016;2023-03-07T16:07:53;15.07;;;5.33;;
24901;SDS011;31328;51.402;0.016;2023-03-07T16:10:21;18.73;;;5.47;;
24901;SDS011;31328;51.402;0.016;2023-03-07T16:12:51;7.63;;;4.10;;
24901;SDS011;31328;51.402;0.016;2023-03-07T16:15:18;5.97;;;4.07;;
24901;SDS011;31328;51.402;0.016;2023-03-07T16:17:47;6.87;;;4.20;;
24901;SDS011;31328;51.402;0.016;2023-03-07T16:20:19;5.93;;;3.77;;
24901;SDS011;31328;51.402;0.016;2023-03-07T16:22:46;4.77;;;3.57;;
24901;SDS011;31328;51.402;0.016;2023-03-07T16:25:13;7.90;;;4.33;;
24901;SDS011;31328;51.402;0.016;2023-03-07T16:27:41;6.47;;;5.23;;
24901;SDS011;31328;51.402;0.016;2023-03-07T16:30:12;7.13;;;4.80;;
24901;SDS011;31328;51.402;0.016;2023-03-07T16:32:40;10.53;;;5.00;;
24901;SDS011;31328;51.402;0.016;2023-03-07T16:37:40;8.13;;;5.30;;
24901;SDS011;31328;51.402;0.016;2023-03-07T16:40:06;6.77;;;5.00;;
24901;SDS011;31328;51.402;0.016;2023-03-07T16:42:33;8.90;;;5.63;;
24901;SDS011;31328;51.402;0.016;2023-03-07T16:45:00;7.70;;;5.23;;
24901;SDS011;31328;51.402;0.016;2023-03-07T16:47:26;6.93;;;5.43;;
24901;SDS011;31328;51.402;0.016;2023-03-07T16:49:52;9.33;;;6.47;;
24901;SDS011;31328;51.402;0.016;2023-03-07T16:52:19;7.87;;;5.60;;
24901;SDS011;31328;51.402;0.016;2023-03-07T16:54:48;7.20;;;5.43;;
24901;SDS011;31328;51.402;0.016;2023-03-07T16:57:14;7.80;;;5.77;;
24901;SDS011;31328;51.402;0.016;2023-03-07T16:59:43;11.27;;;5.77;;
24901;SDS011;31328;51.402;0.016;2023-03-07T17:02:15;9.27;;;6.27;;
24901;SDS011;31328;51.402;0.016;2023-03-07T17:04:44;7.87;;;5.73;;
24901;SDS011;31328;51.402;0.016;2023-03-07T17:07:13;8.00;;;5.70;;
24901;SDS011;31328;51.402;0.016;2023-03-07T17:09:41;8.67;;;5.77;;
24901;SDS011;31328;51.402;0.016;2023-03-07T17:12:08;8.20;;;5.90;;
24901;SDS011;31328;51.402;0.016;2023-03-07T17:14:34;9.60;;;6.00;;
24901;SDS011;31328;51.402;0.016;2023-03-07T17:17:01;7.40;;;5.87;;
24901;SDS011;31328;51.402;0.016;2023-03-07T17:19:29;9.00;;;6.27;;
24901;SDS011;31328;51.402;0.016;2023-03-07T17:21:57;11.73;;;6.97;;
24901;SDS011;31328;51.402;0.016;2023-03-07T17:24:25;10.67;;;6.53;;
24901;SDS011;31328;51.402;0.016;2023-03-07T17:26:52;10.73;;;6.10;;
24901;SDS011;31328;51.402;0.016;2023-03-07T17:31:48;12.50;;;7.00;;
24901;SDS011;31328;51.402;0.016;2023-03-07T17:34:21;9.83;;;6.87;;